Station: Sheffield  

  Atmospheric Gas Attenuation - ITU Rec 676-11   ----------------- dB/100km -----------------
Date Time Temp RH % AH g/m3 Dew Point Wind Direction Speed kph Gust kph Barometer mB Rainfall Since 9am 24GHz 47GHz 76GHz 122GHz 134GHz 241GHz
08/05 12:30 13.3 62 7.16 6.2 6 15 1016.4 0 16.5 23.9 34.5 90.3 80.6 276.1
08/05 12:20 13.4 61 7.09 6.2 4 6 1016.1 0 16.4 23.7 34.2 89.4 79.6 272.6
08/05 12:10 13.6 61 7.18 6.2 13 17 1016.1 0 16.6 23.8 34.5 90.1 80.5 275.8
08/05 12:00 13.5 62 7.25 6.4 7 20 1016.1 0 16.7 23.9 34.8 91.0 81.5 279.3
08/05 11:50 13.8 62 7.39 6.8 9 13 1016 0 17.0 24.1 35.2 92.0 83.0 284.4
08/05 11:40 13.5 58 6.78 5.4 9 15 1016 0 15.7 23.2 33.0 86.2 75.6 258.6
08/05 11:30 13.5 63 7.37 6.6 9 13 1015.9 0 17.0 24.1 35.2 92.2 83.0 284.6
08/05 11:20 13.6 60 7.06 6 9 13 1015.6 0 16.3 23.6 34.0 88.9 79.0 270.5
08/05 11:10 13.8 59 7.03 6.1 11 15 1015.5 0 16.2 23.5 33.8 88.3 78.4 268.4
08/05 11:00 13.6 59 6.94 5.7 9 20 1015.4 0 16.1 23.4 33.5 87.6 77.5 265.2
08/05 10:50 13.7 61 7.22 6.3 11 15 1015.3 0 16.6 23.8 34.5 90.4 80.9 277.1
08/05 10:40 13 58 6.58 5.1 15 22 1015.2 0 15.3 23.0 32.4 84.6 73.6 251.4
08/05 10:30 13.2 58 6.66 5.1 11 19 1015.1 0 15.5 23.1 32.6 85.2 74.4 254.2
08/05 10:20 13.1 63 7.19 6.2 11 17 1014.8 0 16.6 23.9 34.7 90.7 81.1 277.7
08/05 10:10 12.7 63 7.01 5.8 6 9 1014.6 0 16.2 23.7 34.1 89.3 79.2 271.1
08/05 10:00 12.5 60 6.6 5 15 32 1014.3 0 15.4 23.1 32.6 85.3 74.2 253.6
08/05 09:50 13 60 6.8 5.4 15 20 1014.1 0 15.8 23.3 33.2 86.8 76.2 260.7
08/05 09:40 13 60 6.8 5.4 15 26 1014.2 0 15.8 23.3 33.2 86.8 76.2 260.7
08/05 09:30 12.4 60 6.56 4.9 15 37 1014 0 15.3 23.1 32.5 85.0 73.8 252.1
08/05 09:20 12.4 59 6.45 4.6 13 26 1013.9 0 15.1 22.9 32.1 83.8 72.4 247.3
08/05 09:10 12.2 59 6.37 4.4 17 24 1013.8 0 14.9 22.8 31.9 83.2 71.6 244.4
08/05 09:00 11.9 60 6.36 4.4 9 24 1013.8 0 14.9 22.9 31.9 83.5 71.8 244.9
08/05 08:50 11.9 61 6.46 4.6 20 28 1013.4 1.4 15.1 23.0 32.3 84.4 73.0 249.2
08/05 08:40 11.3 62 6.33 4.3 7 15 1013.1 1.4 14.9 23.0 32.0 83.7 71.9 245.3
08/05 08:30 11.2 64 6.49 4.7 7 19 1013 1.4 15.2 23.3 32.7 85.4 74.0 252.6
08/05 08:20 11.3 58 5.92 3.5 7 9 1012.8 1.4 14.0 22.4 30.5 79.6 66.8 227.4
08/05 08:10 11.1 60 6.04 3.6 4 4 1012.7 1.4 14.2 22.6 31.0 81.0 68.4 233.1
08/05 08:00 10.8 61 6.03 3.6 9 20 1012.6 1.4 14.2 22.6 31.1 81.2 68.6 233.5
08/05 07:50 10.6 61 5.96 3.4 7 11 1012.2 1.4 14.1 22.6 30.9 80.6 67.8 231.0
08/05 07:40 10.6 60 5.86 3.1 6 7 1011.8 1.4 13.9 22.4 30.5 79.6 66.6 226.5
08/05 07:30 10 63 5.92 3.3 7 15 1011.5 1.4 14.0 22.6 30.9 80.8 67.8 230.8
08/05 07:20 10.2 61 5.81 3 6 9 1011.3 1.4 13.8 22.4 30.4 79.4 66.3 225.4
08/05 07:10 10.4 59 5.69 2.9 9 13 1011 1.4 13.5 22.2 29.9 78.0 64.6 219.6
08/05 07:00 10.4 61 5.88 3.2 19 48 1010.9 1.4 13.9 22.4 30.6 79.9 66.9 227.8
08/05 06:50 10.2 62 5.9 3.2 13 22 1010.3 1.4 14.0 22.5 30.7 80.2 67.3 229.1
08/05 06:40 10.1 61 5.77 2.9 26 41 1010 1.4 13.7 22.3 30.3 79.0 65.8 223.7
08/05 06:30 10.3 60 5.75 2.9 30 54 1009.9 1.4 13.6 22.2 30.1 78.6 65.4 222.2
08/05 06:20 10.1 62 5.86 3.1 20 30 1009.7 1.4 13.9 22.5 30.6 79.9 66.9 227.6
08/05 06:10 10.4 62 5.98 3.4 24 35 1009.6 1.4 14.1 22.6 30.9 80.8 68.1 231.9
08/05 06:00 10.3 63 6.03 3.6 24 52 1009.6 1.4 14.2 22.7 31.2 81.4 68.8 234.4
08/05 05:50 10.6 62 6.05 3.6 26 57 1009.7 1.4 14.3 22.6 31.1 81.3 68.8 234.4
08/05 05:40 10.7 61 5.99 3.5 15 19 1009.3 1.4 14.1 22.5 30.8 80.6 68.0 231.4
08/05 05:30 10.4 63 6.07 3.7 17 41 1009.4 1.4 14.3 22.7 31.3 81.7 69.2 235.8
08/05 05:20 10.8 62 6.13 3.8 15 20 1009 1.4 14.4 22.7 31.3 81.8 69.6 237.2
08/05 05:10 10.8 62 6.13 3.8 9 9 1009 1.4 14.4 22.7 31.3 81.8 69.6 237.2
08/05 05:00 10.6 62 6.05 3.6 7 19 1009.1 1.4 14.3 22.6 31.1 81.2 68.8 234.3
08/05 04:50 10.7 63 6.19 3.9 11 15 1008.6 1.4 14.6 22.8 31.6 82.5 70.4 240.0
08/05 04:40 9.9 67 6.26 4 4 6 1008.6 1.4 14.8 23.1 32.2 84.1 72.0 245.6
08/05 04:30 10.2 67 6.38 4.4 6 13 1008.5 1.4 15.0 23.2 32.5 85.0 73.2 249.9
08/05 04:20 10.2 67 6.38 4.3 13 19 1008.4 1.4 15.0 23.2 32.5 85.0 73.2 249.9
08/05 04:10 10.3 66 6.32 4.2 9 20 1008.5 1.4 14.9 23.1 32.2 84.2 72.4 247.0
08/05 04:00 10.4 65 6.27 4.1 20 43 1008.2 1.4 14.8 22.9 32.0 83.6 71.6 244.4
08/05 03:50 10.6 63 6.15 3.8 19 30 1007.9 1.4 14.5 22.7 31.4 82.1 69.9 238.4
08/05 03:40 10.6 62 6.05 3.6 22 39 1007.9 1.4 14.3 22.6 31.1 81.1 68.7 234.1
08/05 03:30 10.5 63 6.11 3.8 24 46 1007.4 1.4 14.4 22.6 31.3 81.8 69.5 236.9
08/05 03:20 10.5 62 6.01 3.5 24 37 1007.1 1.4 14.2 22.5 30.9 80.8 68.2 232.4
08/05 03:10 10.4 63 6.07 3.6 17 26 1006.8 1.4 14.3 22.6 31.2 81.4 69.1 235.3
08/05 03:00 10.4 64 6.17 3.9 32 52 1006.8 1.4 14.5 22.7 31.5 82.5 70.3 239.7
08/05 02:50 10.4 65 6.27 4.1 33 41 1006.9 1.4 14.8 22.9 31.9 83.5 71.6 244.1
08/05 02:40 10.2 68 6.47 4.5 26 41 1007.4 1.4 15.2 23.3 32.8 85.8 74.3 253.7
08/05 02:30 10.6 67 6.54 4.7 24 46 1007.7 1.4 15.3 23.3 32.9 86.1 74.8 255.6
08/05 02:20 10.7 67 6.58 4.8 24 35 1008 1.4 15.4 23.3 33.0 86.4 75.3 257.1
08/05 02:10 10.7 68 6.68 5 15 20 1007.9 1.4 15.6 23.5 33.4 87.5 76.5 261.6
08/05 02:00 10.8 71 7.02 5.8 17 44 1008.2 1.4 16.3 24.0 34.7 90.9 80.8 276.6
08/05 01:50 10.8 73 7.22 6.1 15 22 1008.1 1.4 16.8 24.3 35.5 93.0 83.4 285.7
08/05 01:40 10.4 76 7.33 6.3 9 13 1008.2 1.4 17.0 24.6 36.1 94.7 85.3 292.2
08/05 01:30 10.1 79 7.47 6.6 17 37 1008 1.4 17.3 24.9 36.8 96.5 87.5 299.8
08/05 01:20 10.1 78 7.38 6.4 19 26 1007.7 1.4 17.1 24.8 36.4 95.5 86.2 295.5
08/05 01:10 10.3 77 7.38 6.4 20 28 1007.7 1.4 17.1 24.7 36.3 95.3 86.0 294.8
08/05 01:00 10.4 77 7.42 6.5 26 50 1007.6 1.4 17.2 24.7 36.4 95.6 86.4 296.2
08/05 00:50 10.6 76 7.42 6.5 33 48 1007.4 1.4 17.2 24.7 36.3 95.3 86.2 295.4
08/05 00:40 10.6 77 7.52 6.7 30 43 1007.5 1.4 17.4 24.8 36.8 96.4 87.5 300.0
08/05 00:30 11 74 7.41 6.6 30 48 1007.5 1.4 17.2 24.6 36.1 94.7 85.6 293.5
08/05 00:20 11 77 7.71 7.1 30 43 1007.5 1.4 17.8 25.0 37.3 97.9 89.6 307.3
08/05 00:10 10.8 80 7.91 7.5 22 35 1007.7 1.4 18.3 25.4 38.2 100.3 92.5 317.5
08/05 00:00 10.9 80 7.96 7.6 24 43 1007.6 1.4 18.4 25.5 38.4 100.7 93.0 319.4
07/05 23:50 10.1 86 8.13 7.8 22 32 1007.9 1.4 18.8 26.0 39.5 103.7 96.3 330.8
07/05 23:40 9.6 90 8.25 8 20 26 1007.8 1.4 19.0 26.3 40.2 105.7 98.6 338.7
07/05 23:30 8.8 92 8.01 7.6 13 20 1007.9 1.4 18.6 26.2 39.6 104.1 96.3 330.6
07/05 23:20 8.8 93 8.1 7.7 13 17 1008.1 1.4 18.8 26.3 40.0 105.1 97.6 335.0
07/05 23:10 8.8 93 8.1 7.7 11 17 1008.4 1.4 18.8 26.4 40.1 105.2 97.6 335.1
07/05 23:00 8.9 93 8.15 7.8 11 19 1008.4 1.4 18.9 26.4 40.2 105.6 98.2 337.1
07/05 22:50 9 91 8.03 7.7 13 17 1008.6 1.4 18.6 26.2 39.7 104.1 96.4 330.9
07/05 22:40 9.1 91 8.08 7.7 13 19 1008.6 1.4 18.7 26.2 39.8 104.5 97.0 332.9
07/05 22:30 9.3 91 8.18 7.9 13 20 1009.2 1 18.9 26.4 40.2 105.5 98.1 337.0
07/05 22:20 9.5 90 8.19 7.9 13 17 1009.2 1 18.9 26.3 40.1 105.3 98.0 336.6
07/05 22:10 9.8 88 8.17 7.9 17 20 1009.3 0.8 18.9 26.2 39.9 104.7 97.4 334.4
07/05 22:00 10 85 7.99 7.6 15 26 1009.5 0.2 18.5 25.9 39.0 102.4 94.7 325.0
07/05 21:50 9.6 85 7.79 7.2 15 20 1009.4 0.2 18.1 25.6 38.4 100.8 92.4 317.1
07/05 21:40 9.3 84 7.55 6.7 19 32 1009.3 0 17.5 25.3 37.6 98.5 89.5 306.9
07/05 21:30 8.9 85 7.45 6.5 17 32 1009.1 0 17.4 25.3 37.3 97.9 88.6 303.7
07/05 21:20 8.3 87 7.34 6.2 13 19 1008.9 0 17.1 25.2 37.2 97.4 87.8 300.8
07/05 21:10 7.6 88 7.09 5.7 13 17 1009.2 0 16.6 25.0 36.5 95.6 85.3 291.7
07/05 21:00 7.1 90 7.02 5.6 13 20 1009.3 0 16.5 25.1 36.4 95.4 84.9 290.2
07/05 20:50 5.5 94 6.61 4.6 11 20 1009.4 0 15.7 24.8 35.5 92.8 81.0 276.5
07/05 20:40 4.9 94 6.35 4 9 15 1009.5 0 15.1 24.6 34.6 90.7 78.1 266.1
07/05 20:30 4.6 94 6.22 3.7 9 13 1009.8 0 14.9 24.5 34.3 89.6 76.6 261.0
07/05 20:20 4.8 95 6.38 4 7 11 1010.1 0 15.2 24.7 34.8 91.2 78.6 268.1
07/05 20:10 4.8 94 6.31 3.9 13 15 1010.3 0 15.1 24.6 34.6 90.4 77.7 264.8
07/05 20:00 5.2 93 6.41 4.2 13 19 1010.5 0 15.3 24.6 34.8 91.1 78.7 268.2

Last Refresh: 08-May-2026 12:07:30

Bureau of Meteorology